sensor_id;sensor_type;location;lat;lon;timestamp;temperature;humidity
5086;DHT22;4715;51.660;7.082;2023-02-15T00:00:48;5.70;99.90
5086;DHT22;4715;51.660;7.082;2023-02-15T00:03:15;5.60;99.90
5086;DHT22;4715;51.660;7.082;2023-02-15T00:05:39;5.60;99.90
5086;DHT22;4715;51.660;7.082;2023-02-15T00:08:01;5.50;99.90
5086;DHT22;4715;51.660;7.082;2023-02-15T00:10:24;5.50;99.90
5086;DHT22;4715;51.660;7.082;2023-02-15T00:12:49;5.50;99.90
5086;DHT22;4715;51.660;7.082;2023-02-15T00:15:11;5.50;99.90
5086;DHT22;4715;51.660;7.082;2023-02-15T00:17:34;5.40;99.90
5086;DHT22;4715;51.660;7.082;2023-02-15T00:19:57;5.40;99.90
5086;DHT22;4715;51.660;7.082;2023-02-15T00:22:19;5.30;99.90
5086;DHT22;4715;51.660;7.082;2023-02-15T00:24:42;5.30;99.90
5086;DHT22;4715;51.660;7.082;2023-02-15T00:27:05;5.30;99.90
5086;DHT22;4715;51.660;7.082;2023-02-15T00:29:27;5.30;99.90
5086;DHT22;4715;51.660;7.082;2023-02-15T00:31:49;5.30;99.90
5086;DHT22;4715;51.660;7.082;2023-02-15T00:34:15;5.30;99.90
5086;DHT22;4715;51.660;7.082;2023-02-15T00:36:38;5.30;99.90
5086;DHT22;4715;51.660;7.082;2023-02-15T00:39:03;5.30;99.90
5086;DHT22;4715;51.660;7.082;2023-02-15T00:41:27;5.20;99.90
5086;DHT22;4715;51.660;7.082;2023-02-15T00:43:51;5.20;99.90
5086;DHT22;4715;51.660;7.082;2023-02-15T00:46:14;5.20;99.90
5086;DHT22;4715;51.660;7.082;2023-02-15T00:48:39;5.20;99.90
5086;DHT22;4715;51.660;7.082;2023-02-15T00:51:02;5.20;99.90
5086;DHT22;4715;51.660;7.082;2023-02-15T00:53:27;5.10;99.90
5086;DHT22;4715;51.660;7.082;2023-02-15T00:55:49;5.10;99.90
5086;DHT22;4715;51.660;7.082;2023-02-15T00:58:12;5.10;99.90
5086;DHT22;4715;51.660;7.082;2023-02-15T01:00:36;5.10;99.90
5086;DHT22;4715;51.660;7.082;2023-02-15T01:02:58;5.00;99.90
5086;DHT22;4715;51.660;7.082;2023-02-15T01:05:20;5.00;99.90
5086;DHT22;4715;51.660;7.082;2023-02-15T01:07:42;5.00;99.90
5086;DHT22;4715;51.660;7.082;2023-02-15T01:10:06;5.00;99.90
5086;DHT22;4715;51.660;7.082;2023-02-15T01:12:32;5.00;99.90
5086;DHT22;4715;51.660;7.082;2023-02-15T01:14:56;4.90;99.90
5086;DHT22;4715;51.660;7.082;2023-02-15T01:17:23;4.90;99.90
5086;DHT22;4715;51.660;7.082;2023-02-15T01:19:45;4.90;99.90
5086;DHT22;4715;51.660;7.082;2023-02-15T01:22:14;4.80;99.90
5086;DHT22;4715;51.660;7.082;2023-02-15T01:24:37;4.80;99.90
5086;DHT22;4715;51.660;7.082;2023-02-15T01:26:59;4.80;99.90
5086;DHT22;4715;51.660;7.082;2023-02-15T01:29:21;4.80;99.90
5086;DHT22;4715;51.660;7.082;2023-02-15T01:31:43;4.70;99.90
5086;DHT22;4715;51.660;7.082;2023-02-15T01:34:07;4.70;99.90
5086;DHT22;4715;51.660;7.082;2023-02-15T01:36:29;4.70;99.90
5086;DHT22;4715;51.660;7.082;2023-02-15T01:38:51;4.70;99.90
5086;DHT22;4715;51.660;7.082;2023-02-15T01:41:13;4.70;99.90
5086;DHT22;4715;51.660;7.082;2023-02-15T01:43:49;4.70;99.90
5086;DHT22;4715;51.660;7.082;2023-02-15T01:46:13;4.60;99.90
5086;DHT22;4715;51.660;7.082;2023-02-15T01:48:42;4.50;99.90
5086;DHT22;4715;51.660;7.082;2023-02-15T01:51:06;4.50;99.90
5086;DHT22;4715;51.660;7.082;2023-02-15T01:53:33;4.50;99.90
5086;DHT22;4715;51.660;7.082;2023-02-15T01:55:59;4.50;99.90
5086;DHT22;4715;51.660;7.082;2023-02-15T01:58:21;4.50;99.90
5086;DHT22;4715;51.660;7.082;2023-02-15T02:00:44;4.50;99.90
5086;DHT22;4715;51.660;7.082;2023-02-15T02:03:07;4.40;99.90
5086;DHT22;4715;51.660;7.082;2023-02-15T02:05:29;4.40;99.90
5086;DHT22;4715;51.660;7.082;2023-02-15T02:07:54;4.40;99.90
5086;DHT22;4715;51.660;7.082;2023-02-15T02:10:19;4.30;99.90
5086;DHT22;4715;51.660;7.082;2023-02-15T02:12:44;4.30;99.90
5086;DHT22;4715;51.660;7.082;2023-02-15T02:15:08;4.30;99.90
5086;DHT22;4715;51.660;7.082;2023-02-15T02:17:37;4.30;99.90
5086;DHT22;4715;51.660;7.082;2023-02-15T02:20:28;4.30;99.90
5086;DHT22;4715;51.660;7.082;2023-02-15T02:23:25;4.30;99.90
5086;DHT22;4715;51.660;7.082;2023-02-15T02:32:14;4.20;99.90
5086;DHT22;4715;51.660;7.082;2023-02-15T02:34:45;4.20;99.90
5086;DHT22;4715;51.660;7.082;2023-02-15T02:37:16;4.10;99.90
5086;DHT22;4715;51.660;7.082;2023-02-15T02:39:49;4.10;99.90
5086;DHT22;4715;51.660;7.082;2023-02-15T02:42:20;4.00;99.90
5086;DHT22;4715;51.660;7.082;2023-02-15T02:44:48;4.00;99.90
5086;DHT22;4715;51.660;7.082;2023-02-15T02:47:15;4.00;99.90
5086;DHT22;4715;51.660;7.082;2023-02-15T02:49:43;4.00;99.90
5086;DHT22;4715;51.660;7.082;2023-02-15T02:52:31;4.00;99.90
5086;DHT22;4715;51.660;7.082;2023-02-15T02:54:48;4.00;99.90
5086;DHT22;4715;51.660;7.082;2023-02-15T02:57:10;4.00;99.90
5086;DHT22;4715;51.660;7.082;2023-02-15T02:59:34;4.00;99.90
5086;DHT22;4715;51.660;7.082;2023-02-15T03:02:02;3.90;99.90
5086;DHT22;4715;51.660;7.082;2023-02-15T03:04:30;3.90;99.90
5086;DHT22;4715;51.660;7.082;2023-02-15T03:06:58;3.80;99.90
5086;DHT22;4715;51.660;7.082;2023-02-15T03:09:26;3.80;99.90
5086;DHT22;4715;51.660;7.082;2023-02-15T03:12:02;3.80;99.90
5086;DHT22;4715;51.660;7.082;2023-02-15T03:14:24;3.70;99.90
5086;DHT22;4715;51.660;7.082;2023-02-15T03:16:48;3.70;99.90
5086;DHT22;4715;51.660;7.082;2023-02-15T03:19:13;3.70;99.90
5086;DHT22;4715;51.660;7.082;2023-02-15T03:21:40;3.60;99.90
5086;DHT22;4715;51.660;7.082;2023-02-15T03:24:08;3.60;99.90
5086;DHT22;4715;51.660;7.082;2023-02-15T03:26:34;3.60;99.90
5086;DHT22;4715;51.660;7.082;2023-02-15T03:28:58;3.50;99.90
5086;DHT22;4715;51.660;7.082;2023-02-15T03:31:22;3.50;99.90
5086;DHT22;4715;51.660;7.082;2023-02-15T03:33:52;3.50;99.90
5086;DHT22;4715;51.660;7.082;2023-02-15T03:36:18;3.50;99.90
5086;DHT22;4715;51.660;7.082;2023-02-15T03:38:47;3.50;99.90
5086;DHT22;4715;51.660;7.082;2023-02-15T03:41:15;3.50;99.90
5086;DHT22;4715;51.660;7.082;2023-02-15T03:43:48;3.50;99.90
5086;DHT22;4715;51.660;7.082;2023-02-15T03:46:24;3.50;99.90
5086;DHT22;4715;51.660;7.082;2023-02-15T03:48:53;3.50;99.90
5086;DHT22;4715;51.660;7.082;2023-02-15T03:51:19;3.50;99.90
5086;DHT22;4715;51.660;7.082;2023-02-15T03:53:57;3.40;99.90
5086;DHT22;4715;51.660;7.082;2023-02-15T03:56:24;3.50;99.90
5086;DHT22;4715;51.660;7.082;2023-02-15T03:58:49;3.40;99.90
5086;DHT22;4715;51.660;7.082;2023-02-15T04:01:34;3.40;99.90
5086;DHT22;4715;51.660;7.082;2023-02-15T04:04:36;3.50;99.90
5086;DHT22;4715;51.660;7.082;2023-02-15T04:06:58;3.40;99.90
5086;DHT22;4715;51.660;7.082;2023-02-15T04:09:20;3.40;99.90
5086;DHT22;4715;51.660;7.082;2023-02-15T04:11:59;3.40;99.90
5086;DHT22;4715;51.660;7.082;2023-02-15T04:14:21;3.40;99.90
5086;DHT22;4715;51.660;7.082;2023-02-15T04:17:00;3.30;99.90
5086;DHT22;4715;51.660;7.082;2023-02-15T04:19:22;3.30;99.90
5086;DHT22;4715;51.660;7.082;2023-02-15T04:22:03;3.30;99.90
5086;DHT22;4715;51.660;7.082;2023-02-15T04:24:43;3.30;99.90
5086;DHT22;4715;51.660;7.082;2023-02-15T04:27:23;3.30;99.90
5086;DHT22;4715;51.660;7.082;2023-02-15T04:29:45;3.30;99.90
5086;DHT22;4715;51.660;7.082;2023-02-15T04:32:06;3.30;99.90
5086;DHT22;4715;51.660;7.082;2023-02-15T04:34:28;3.30;99.90
5086;DHT22;4715;51.660;7.082;2023-02-15T04:36:50;3.30;99.90
5086;DHT22;4715;51.660;7.082;2023-02-15T04:39:14;3.30;99.90
5086;DHT22;4715;51.660;7.082;2023-02-15T04:41:36;3.30;99.90
5086;DHT22;4715;51.660;7.082;2023-02-15T04:43:58;3.30;99.90
5086;DHT22;4715;51.660;7.082;2023-02-15T04:46:21;3.30;99.90
5086;DHT22;4715;51.660;7.082;2023-02-15T04:48:42;3.30;99.90
5086;DHT22;4715;51.660;7.082;2023-02-15T04:51:05;3.30;99.90
5086;DHT22;4715;51.660;7.082;2023-02-15T04:53:27;3.30;99.90
5086;DHT22;4715;51.660;7.082;2023-02-15T04:55:50;3.30;99.90
5086;DHT22;4715;51.660;7.082;2023-02-15T04:58:12;3.30;99.90
5086;DHT22;4715;51.660;7.082;2023-02-15T05:00:37;3.20;99.90
5086;DHT22;4715;51.660;7.082;2023-02-15T05:02:59;3.20;99.90
5086;DHT22;4715;51.660;7.082;2023-02-15T05:05:20;3.20;99.90
5086;DHT22;4715;51.660;7.082;2023-02-15T05:07:43;3.20;99.90
5086;DHT22;4715;51.660;7.082;2023-02-15T05:10:05;3.10;99.90
5086;DHT22;4715;51.660;7.082;2023-02-15T05:12:29;3.10;99.90
5086;DHT22;4715;51.660;7.082;2023-02-15T05:14:51;3.10;99.90
5086;DHT22;4715;51.660;7.082;2023-02-15T05:17:13;3.10;99.90
5086;DHT22;4715;51.660;7.082;2023-02-15T05:19:35;3.10;99.90
5086;DHT22;4715;51.660;7.082;2023-02-15T05:21:56;3.10;99.90
5086;DHT22;4715;51.660;7.082;2023-02-15T05:24:18;3.10;99.90
5086;DHT22;4715;51.660;7.082;2023-02-15T05:26:58;3.10;99.90
5086;DHT22;4715;51.660;7.082;2023-02-15T05:29:39;3.10;99.90
5086;DHT22;4715;51.660;7.082;2023-02-15T05:32:00;3.10;99.90
5086;DHT22;4715;51.660;7.082;2023-02-15T05:34:24;3.00;99.90
5086;DHT22;4715;51.660;7.082;2023-02-15T05:36:46;3.00;99.90
5086;DHT22;4715;51.660;7.082;2023-02-15T05:39:08;3.00;99.90
5086;DHT22;4715;51.660;7.082;2023-02-15T05:41:36;3.00;99.90
5086;DHT22;4715;51.660;7.082;2023-02-15T05:44:00;2.90;99.90
5086;DHT22;4715;51.660;7.082;2023-02-15T05:46:26;2.90;99.90
5086;DHT22;4715;51.660;7.082;2023-02-15T05:48:48;2.90;99.90
5086;DHT22;4715;51.660;7.082;2023-02-15T05:51:11;3.00;99.90
5086;DHT22;4715;51.660;7.082;2023-02-15T05:53:36;2.90;99.90
5086;DHT22;4715;51.660;7.082;2023-02-15T05:56:00;2.90;99.90
5086;DHT22;4715;51.660;7.082;2023-02-15T05:58:22;2.90;99.90
5086;DHT22;4715;51.660;7.082;2023-02-15T06:00:44;2.90;99.90
5086;DHT22;4715;51.660;7.082;2023-02-15T06:03:08;2.90;99.90
5086;DHT22;4715;51.660;7.082;2023-02-15T06:05:30;2.90;99.90
5086;DHT22;4715;51.660;7.082;2023-02-15T06:07:52;2.90;99.90
5086;DHT22;4715;51.660;7.082;2023-02-15T06:10:14;2.80;99.90
5086;DHT22;4715;51.660;7.082;2023-02-15T06:12:37;2.90;99.90
5086;DHT22;4715;51.660;7.082;2023-02-15T06:14:59;2.80;99.90
5086;DHT22;4715;51.660;7.082;2023-02-15T06:17:20;2.80;99.90
5086;DHT22;4715;51.660;7.082;2023-02-15T06:19:44;2.80;99.90
5086;DHT22;4715;51.660;7.082;2023-02-15T06:22:07;2.80;99.90
5086;DHT22;4715;51.660;7.082;2023-02-15T06:24:29;2.80;99.90
5086;DHT22;4715;51.660;7.082;2023-02-15T06:26:50;2.80;99.90
5086;DHT22;4715;51.660;7.082;2023-02-15T06:29:12;2.80;99.90
5086;DHT22;4715;51.660;7.082;2023-02-15T06:31:34;2.80;99.90
5086;DHT22;4715;51.660;7.082;2023-02-15T06:33:56;2.80;99.90
5086;DHT22;4715;51.660;7.082;2023-02-15T06:36:22;2.70;99.90
5086;DHT22;4715;51.660;7.082;2023-02-15T06:38:44;2.70;99.90
5086;DHT22;4715;51.660;7.082;2023-02-15T06:41:06;2.70;99.90
5086;DHT22;4715;51.660;7.082;2023-02-15T06:43:28;2.70;99.90
5086;DHT22;4715;51.660;7.082;2023-02-15T06:45:50;2.70;99.90
5086;DHT22;4715;51.660;7.082;2023-02-15T06:48:12;2.70;99.90
5086;DHT22;4715;51.660;7.082;2023-02-15T06:50:34;2.70;99.90
5086;DHT22;4715;51.660;7.082;2023-02-15T06:52:58;2.70;99.90
5086;DHT22;4715;51.660;7.082;2023-02-15T06:55:22;2.70;99.90
5086;DHT22;4715;51.660;7.082;2023-02-15T06:57:44;2.60;99.90
5086;DHT22;4715;51.660;7.082;2023-02-15T07:00:07;2.70;99.90
5086;DHT22;4715;51.660;7.082;2023-02-15T07:02:29;2.70;99.90
5086;DHT22;4715;51.660;7.082;2023-02-15T07:04:51;2.70;99.90
5086;DHT22;4715;51.660;7.082;2023-02-15T07:07:13;2.70;99.90
5086;DHT22;4715;51.660;7.082;2023-02-15T07:09:37;2.70;99.90
5086;DHT22;4715;51.660;7.082;2023-02-15T07:11:59;2.70;99.90
5086;DHT22;4715;51.660;7.082;2023-02-15T07:14:38;2.70;99.90
5086;DHT22;4715;51.660;7.082;2023-02-15T07:17:08;2.70;99.90
5086;DHT22;4715;51.660;7.082;2023-02-15T07:19:29;2.70;99.90
5086;DHT22;4715;51.660;7.082;2023-02-15T07:21:51;2.70;99.90
5086;DHT22;4715;51.660;7.082;2023-02-15T07:24:13;2.80;99.90
5086;DHT22;4715;51.660;7.082;2023-02-15T07:26:37;2.80;99.90
5086;DHT22;4715;51.660;7.082;2023-02-15T07:28:59;2.80;99.90
5086;DHT22;4715;51.660;7.082;2023-02-15T07:31:23;2.80;99.90
5086;DHT22;4715;51.660;7.082;2023-02-15T07:33:45;2.90;99.90
5086;DHT22;4715;51.660;7.082;2023-02-15T07:36:08;3.00;99.90
5086;DHT22;4715;51.660;7.082;2023-02-15T07:38:33;3.00;99.90
5086;DHT22;4715;51.660;7.082;2023-02-15T07:40:58;3.10;99.90
5086;DHT22;4715;51.660;7.082;2023-02-15T07:43:25;3.10;99.90
5086;DHT22;4715;51.660;7.082;2023-02-15T07:45:48;3.10;99.90
5086;DHT22;4715;51.660;7.082;2023-02-15T07:48:09;3.20;99.90
5086;DHT22;4715;51.660;7.082;2023-02-15T07:50:32;3.20;99.90
5086;DHT22;4715;51.660;7.082;2023-02-15T07:52:54;3.30;99.90
5086;DHT22;4715;51.660;7.082;2023-02-15T07:55:16;3.40;99.90
5086;DHT22;4715;51.660;7.082;2023-02-15T07:57:42;3.40;99.90
5086;DHT22;4715;51.660;7.082;2023-02-15T08:00:07;3.50;99.90
5086;DHT22;4715;51.660;7.082;2023-02-15T08:02:32;3.60;99.90
5086;DHT22;4715;51.660;7.082;2023-02-15T08:04:57;3.70;99.90
5086;DHT22;4715;51.660;7.082;2023-02-15T08:07:19;3.70;99.90
5086;DHT22;4715;51.660;7.082;2023-02-15T08:09:40;3.80;99.90
5086;DHT22;4715;51.660;7.082;2023-02-15T08:12:03;3.90;99.90
5086;DHT22;4715;51.660;7.082;2023-02-15T08:14:27;4.00;99.90
5086;DHT22;4715;51.660;7.082;2023-02-15T08:16:52;4.10;99.90
5086;DHT22;4715;51.660;7.082;2023-02-15T08:19:16;4.10;99.90
5086;DHT22;4715;51.660;7.082;2023-02-15T08:21:40;4.20;99.90
5086;DHT22;4715;51.660;7.082;2023-02-15T08:24:03;4.30;99.90
5086;DHT22;4715;51.660;7.082;2023-02-15T08:26:27;4.40;99.90
5086;DHT22;4715;51.660;7.082;2023-02-15T08:28:50;4.40;99.90
5086;DHT22;4715;51.660;7.082;2023-02-15T08:31:13;4.50;99.90
5086;DHT22;4715;51.660;7.082;2023-02-15T08:33:38;4.60;99.90
5086;DHT22;4715;51.660;7.082;2023-02-15T08:36:06;4.70;99.90
5086;DHT22;4715;51.660;7.082;2023-02-15T08:38:30;4.80;99.90
5086;DHT22;4715;51.660;7.082;2023-02-15T08:40:53;4.90;99.90
5086;DHT22;4715;51.660;7.082;2023-02-15T08:43:19;4.90;99.90
5086;DHT22;4715;51.660;7.082;2023-02-15T08:45:41;5.00;99.90
5086;DHT22;4715;51.660;7.082;2023-02-15T08:48:04;5.10;99.90
5086;DHT22;4715;51.660;7.082;2023-02-15T08:50:27;5.20;99.90
5086;DHT22;4715;51.660;7.082;2023-02-15T08:52:51;5.30;99.90
5086;DHT22;4715;51.660;7.082;2023-02-15T08:55:15;5.40;99.90
5086;DHT22;4715;51.660;7.082;2023-02-15T08:57:37;5.40;99.90
5086;DHT22;4715;51.660;7.082;2023-02-15T09:00:08;5.50;99.90
5086;DHT22;4715;51.660;7.082;2023-02-15T09:02:46;5.60;99.90
5086;DHT22;4715;51.660;7.082;2023-02-15T09:05:08;5.70;99.90
5086;DHT22;4715;51.660;7.082;2023-02-15T09:07:31;5.80;99.90
5086;DHT22;4715;51.660;7.082;2023-02-15T09:09:53;5.90;99.90
5086;DHT22;4715;51.660;7.082;2023-02-15T09:12:15;6.00;99.90
5086;DHT22;4715;51.660;7.082;2023-02-15T09:14:37;6.00;99.90
5086;DHT22;4715;51.660;7.082;2023-02-15T09:16:59;6.20;99.90
5086;DHT22;4715;51.660;7.082;2023-02-15T09:19:22;6.20;99.90
5086;DHT22;4715;51.660;7.082;2023-02-15T09:21:44;6.30;99.90
5086;DHT22;4715;51.660;7.082;2023-02-15T09:24:09;6.40;99.90
5086;DHT22;4715;51.660;7.082;2023-02-15T09:26:34;6.50;99.90
5086;DHT22;4715;51.660;7.082;2023-02-15T09:28:57;6.60;99.90
5086;DHT22;4715;51.660;7.082;2023-02-15T09:31:22;6.70;99.90
5086;DHT22;4715;51.660;7.082;2023-02-15T09:33:45;6.80;99.90
5086;DHT22;4715;51.660;7.082;2023-02-15T09:36:15;7.00;99.90
5086;DHT22;4715;51.660;7.082;2023-02-15T09:38:38;7.10;99.90
5086;DHT22;4715;51.660;7.082;2023-02-15T09:41:23;7.20;99.90
5086;DHT22;4715;51.660;7.082;2023-02-15T09:44:00;7.30;99.90
5086;DHT22;4715;51.660;7.082;2023-02-15T09:46:45;7.40;99.90
5086;DHT22;4715;51.660;7.082;2023-02-15T09:49:20;7.50;99.90
5086;DHT22;4715;51.660;7.082;2023-02-15T09:52:22;7.60;99.90
5086;DHT22;4715;51.660;7.082;2023-02-15T09:54:58;7.80;99.90
5086;DHT22;4715;51.660;7.082;2023-02-15T09:57:33;7.90;99.90
5086;DHT22;4715;51.660;7.082;2023-02-15T10:00:04;8.00;99.90
5086;DHT22;4715;51.660;7.082;2023-02-15T10:02:37;8.20;99.90
5086;DHT22;4715;51.660;7.082;2023-02-15T10:05:11;8.30;99.90
5086;DHT22;4715;51.660;7.082;2023-02-15T10:07:49;8.40;99.90
5086;DHT22;4715;51.660;7.082;2023-02-15T10:10:22;8.50;99.90
5086;DHT22;4715;51.660;7.082;2023-02-15T10:12:57;8.60;99.90
5086;DHT22;4715;51.660;7.082;2023-02-15T10:15:29;8.80;99.90
5086;DHT22;4715;51.660;7.082;2023-02-15T10:18:05;8.90;99.90
5086;DHT22;4715;51.660;7.082;2023-02-15T10:20:35;8.90;99.90
5086;DHT22;4715;51.660;7.082;2023-02-15T10:23:13;9.10;99.90
5086;DHT22;4715;51.660;7.082;2023-02-15T10:25:42;9.20;99.90
5086;DHT22;4715;51.660;7.082;2023-02-15T10:28:09;9.40;99.90
5086;DHT22;4715;51.660;7.082;2023-02-15T10:30:39;9.50;99.90
5086;DHT22;4715;51.660;7.082;2023-02-15T10:33:07;9.70;99.90
5086;DHT22;4715;51.660;7.082;2023-02-15T10:35:36;9.90;99.90
5086;DHT22;4715;51.660;7.082;2023-02-15T10:38:13;9.90;99.90
5086;DHT22;4715;51.660;7.082;2023-02-15T10:40:49;10.00;99.90
5086;DHT22;4715;51.660;7.082;2023-02-15T10:43:20;10.10;99.90
5086;DHT22;4715;51.660;7.082;2023-02-15T10:45:53;10.20;99.90
5086;DHT22;4715;51.660;7.082;2023-02-15T10:48:30;10.40;99.90
5086;DHT22;4715;51.660;7.082;2023-02-15T10:50:58;10.60;99.90
5086;DHT22;4715;51.660;7.082;2023-02-15T10:56:20;10.80;99.90
5086;DHT22;4715;51.660;7.082;2023-02-15T10:58:55;10.90;99.90
5086;DHT22;4715;51.660;7.082;2023-02-15T11:01:27;11.00;99.90
5086;DHT22;4715;51.660;7.082;2023-02-15T11:04:14;11.00;99.90
5086;DHT22;4715;51.660;7.082;2023-02-15T11:06:46;11.10;99.90
5086;DHT22;4715;51.660;7.082;2023-02-15T11:09:13;11.20;99.90
5086;DHT22;4715;51.660;7.082;2023-02-15T11:11:39;11.30;99.90
5086;DHT22;4715;51.660;7.082;2023-02-15T11:14:14;11.40;99.90
5086;DHT22;4715;51.660;7.082;2023-02-15T11:16:38;11.50;99.90
5086;DHT22;4715;51.660;7.082;2023-02-15T11:19:06;11.60;99.90
5086;DHT22;4715;51.660;7.082;2023-02-15T11:21:32;11.60;99.90
5086;DHT22;4715;51.660;7.082;2023-02-15T11:23:57;11.70;99.90
5086;DHT22;4715;51.660;7.082;2023-02-15T11:26:26;11.80;99.90
5086;DHT22;4715;51.660;7.082;2023-02-15T11:28:52;12.00;99.90
5086;DHT22;4715;51.660;7.082;2023-02-15T11:31:19;12.10;99.90
5086;DHT22;4715;51.660;7.082;2023-02-15T11:33:44;12.30;99.90
5086;DHT22;4715;51.660;7.082;2023-02-15T11:36:11;12.40;99.90
5086;DHT22;4715;51.660;7.082;2023-02-15T11:38:35;12.50;99.90
5086;DHT22;4715;51.660;7.082;2023-02-15T11:41:02;12.60;99.90
5086;DHT22;4715;51.660;7.082;2023-02-15T11:43:30;12.60;99.90
5086;DHT22;4715;51.660;7.082;2023-02-15T11:45:53;12.70;99.90
5086;DHT22;4715;51.660;7.082;2023-02-15T11:48:17;12.70;99.90
5086;DHT22;4715;51.660;7.082;2023-02-15T11:50:40;12.70;99.90
5086;DHT22;4715;51.660;7.082;2023-02-15T11:53:05;12.70;99.90
5086;DHT22;4715;51.660;7.082;2023-02-15T11:55:29;12.90;99.90
5086;DHT22;4715;51.660;7.082;2023-02-15T11:57:54;13.00;99.90
5086;DHT22;4715;51.660;7.082;2023-02-15T12:00:26;13.00;99.90
5086;DHT22;4715;51.660;7.082;2023-02-15T12:02:53;13.10;99.90
5086;DHT22;4715;51.660;7.082;2023-02-15T12:05:20;13.00;99.90
5086;DHT22;4715;51.660;7.082;2023-02-15T12:07:46;13.00;99.90
5086;DHT22;4715;51.660;7.082;2023-02-15T12:10:18;13.00;99.90
5086;DHT22;4715;51.660;7.082;2023-02-15T12:12:41;13.00;99.90
5086;DHT22;4715;51.660;7.082;2023-02-15T12:15:04;13.10;99.90
5086;DHT22;4715;51.660;7.082;2023-02-15T12:17:28;13.30;99.90
5086;DHT22;4715;51.660;7.082;2023-02-15T12:19:52;13.50;99.90
5086;DHT22;4715;51.660;7.082;2023-02-15T12:22:24;13.70;99.90
5086;DHT22;4715;51.660;7.082;2023-02-15T12:24:48;13.80;99.90
5086;DHT22;4715;51.660;7.082;2023-02-15T12:27:15;13.80;99.90
5086;DHT22;4715;51.660;7.082;2023-02-15T12:29:41;13.80;99.90
5086;DHT22;4715;51.660;7.082;2023-02-15T12:32:03;13.80;99.90
5086;DHT22;4715;51.660;7.082;2023-02-15T12:34:29;13.90;99.90
5086;DHT22;4715;51.660;7.082;2023-02-15T12:36:54;14.00;99.90
5086;DHT22;4715;51.660;7.082;2023-02-15T12:39:22;14.00;99.90
5086;DHT22;4715;51.660;7.082;2023-02-15T12:41:57;14.10;99.90
5086;DHT22;4715;51.660;7.082;2023-02-15T12:44:22;14.20;99.90
5086;DHT22;4715;51.660;7.082;2023-02-15T12:46:57;14.20;99.90
5086;DHT22;4715;51.660;7.082;2023-02-15T12:49:20;14.30;99.90
5086;DHT22;4715;51.660;7.082;2023-02-15T12:51:46;14.30;99.90
5086;DHT22;4715;51.660;7.082;2023-02-15T12:56:54;14.50;99.90
5086;DHT22;4715;51.660;7.082;2023-02-15T12:59:18;14.60;99.90
5086;DHT22;4715;51.660;7.082;2023-02-15T13:01:42;14.70;99.90
5086;DHT22;4715;51.660;7.082;2023-02-15T13:04:15;14.80;99.90
5086;DHT22;4715;51.660;7.082;2023-02-15T13:06:47;15.00;99.90
5086;DHT22;4715;51.660;7.082;2023-02-15T13:09:14;15.10;99.90
5086;DHT22;4715;51.660;7.082;2023-02-15T13:11:38;15.20;99.90
5086;DHT22;4715;51.660;7.082;2023-02-15T13:14:03;15.20;99.90
5086;DHT22;4715;51.660;7.082;2023-02-15T13:16:30;15.30;99.90
5086;DHT22;4715;51.660;7.082;2023-02-15T13:18:52;15.30;99.90
5086;DHT22;4715;51.660;7.082;2023-02-15T13:21:18;15.40;99.90
5086;DHT22;4715;51.660;7.082;2023-02-15T13:23:43;15.40;99.90
5086;DHT22;4715;51.660;7.082;2023-02-15T13:26:12;15.40;99.90
5086;DHT22;4715;51.660;7.082;2023-02-15T13:28:39;15.50;99.90
5086;DHT22;4715;51.660;7.082;2023-02-15T13:31:12;15.60;99.90
5086;DHT22;4715;51.660;7.082;2023-02-15T13:33:36;15.70;99.90
5086;DHT22;4715;51.660;7.082;2023-02-15T13:36:07;15.70;99.90
5086;DHT22;4715;51.660;7.082;2023-02-15T13:38:45;15.80;99.90
5086;DHT22;4715;51.660;7.082;2023-02-15T13:41:13;15.90;99.90
5086;DHT22;4715;51.660;7.082;2023-02-15T13:43:44;15.90;99.90
5086;DHT22;4715;51.660;7.082;2023-02-15T13:46:20;16.10;99.90
5086;DHT22;4715;51.660;7.082;2023-02-15T13:48:55;16.10;99.90
5086;DHT22;4715;51.660;7.082;2023-02-15T13:51:27;16.00;99.90
5086;DHT22;4715;51.660;7.082;2023-02-15T13:54:08;15.90;99.90
5086;DHT22;4715;51.660;7.082;2023-02-15T13:56:41;15.90;99.90
5086;DHT22;4715;51.660;7.082;2023-02-15T13:59:21;16.00;99.90
5086;DHT22;4715;51.660;7.082;2023-02-15T14:01:52;16.20;99.90
5086;DHT22;4715;51.660;7.082;2023-02-15T14:04:34;16.50;99.90
5086;DHT22;4715;51.660;7.082;2023-02-15T14:07:10;16.80;99.90
5086;DHT22;4715;51.660;7.082;2023-02-15T14:09:44;17.00;99.90
5086;DHT22;4715;51.660;7.082;2023-02-15T14:15:24;17.30;99.90
5086;DHT22;4715;51.660;7.082;2023-02-15T14:17:59;17.60;99.90
5086;DHT22;4715;51.660;7.082;2023-02-15T14:20:32;17.70;99.90
5086;DHT22;4715;51.660;7.082;2023-02-15T14:23:05;17.60;99.90
5086;DHT22;4715;51.660;7.082;2023-02-15T14:25:35;17.40;99.90
5086;DHT22;4715;51.660;7.082;2023-02-15T14:28:05;17.10;99.90
5086;DHT22;4715;51.660;7.082;2023-02-15T14:30:34;16.90;99.90
5086;DHT22;4715;51.660;7.082;2023-02-15T14:33:02;16.70;99.90
5086;DHT22;4715;51.660;7.082;2023-02-15T14:35:28;16.50;99.90
5086;DHT22;4715;51.660;7.082;2023-02-15T14:37:54;16.30;99.90
5086;DHT22;4715;51.660;7.082;2023-02-15T14:40:32;16.20;99.90
5086;DHT22;4715;51.660;7.082;2023-02-15T14:43:22;16.10;99.90
5086;DHT22;4715;51.660;7.082;2023-02-15T14:45:49;16.00;99.70
5086;DHT22;4715;51.660;7.082;2023-02-15T14:48:18;15.90;99.50
5086;DHT22;4715;51.660;7.082;2023-02-15T14:50:44;15.80;99.70
5086;DHT22;4715;51.660;7.082;2023-02-15T14:53:16;15.60;99.80
5086;DHT22;4715;51.660;7.082;2023-02-15T14:55:38;15.60;99.60
5086;DHT22;4715;51.660;7.082;2023-02-15T14:58:00;15.50;99.80
5086;DHT22;4715;51.660;7.082;2023-02-15T15:00:36;15.70;99.90
5086;DHT22;4715;51.660;7.082;2023-02-15T15:02:59;15.80;99.90
5086;DHT22;4715;51.660;7.082;2023-02-15T15:05:28;15.90;99.90
5086;DHT22;4715;51.660;7.082;2023-02-15T15:07:54;16.00;99.90
5086;DHT22;4715;51.660;7.082;2023-02-15T15:10:37;16.10;99.80
5086;DHT22;4715;51.660;7.082;2023-02-15T15:16:34;15.90;99.00
5086;DHT22;4715;51.660;7.082;2023-02-15T15:19:12;15.80;99.10
5086;DHT22;4715;51.660;7.082;2023-02-15T15:21:55;15.60;99.40
5086;DHT22;4715;51.660;7.082;2023-02-15T15:24:45;15.50;99.40
5086;DHT22;4715;51.660;7.082;2023-02-15T15:27:39;15.40;99.50
5086;DHT22;4715;51.660;7.082;2023-02-15T15:34:06;15.30;99.80
5086;DHT22;4715;51.660;7.082;2023-02-15T15:40:04;15.20;99.70
5086;DHT22;4715;51.660;7.082;2023-02-15T15:42:49;15.30;99.90
5086;DHT22;4715;51.660;7.082;2023-02-15T15:45:36;15.30;99.80
5086;DHT22;4715;51.660;7.082;2023-02-15T15:48:26;15.50;99.90
5086;DHT22;4715;51.660;7.082;2023-02-15T15:50:53;15.70;99.90
5086;DHT22;4715;51.660;7.082;2023-02-15T15:53:20;15.80;99.80
5086;DHT22;4715;51.660;7.082;2023-02-15T15:55:44;15.80;99.70
5086;DHT22;4715;51.660;7.082;2023-02-15T15:58:08;15.70;98.90
5086;DHT22;4715;51.660;7.082;2023-02-15T16:00:36;15.50;98.80
5086;DHT22;4715;51.660;7.082;2023-02-15T16:02:59;15.30;98.70
5086;DHT22;4715;51.660;7.082;2023-02-15T16:05:21;15.00;98.70
5086;DHT22;4715;51.660;7.082;2023-02-15T16:07:46;14.80;98.60
5086;DHT22;4715;51.660;7.082;2023-02-15T16:10:20;14.60;98.30
5086;DHT22;4715;51.660;7.082;2023-02-15T16:12:47;14.30;98.30
5086;DHT22;4715;51.660;7.082;2023-02-15T16:15:14;14.10;98.70
5086;DHT22;4715;51.660;7.082;2023-02-15T16:17:44;14.00;98.80
5086;DHT22;4715;51.660;7.082;2023-02-15T16:20:15;13.90;99.00
5086;DHT22;4715;51.660;7.082;2023-02-15T16:22:39;13.80;99.20
5086;DHT22;4715;51.660;7.082;2023-02-15T16:25:32;13.60;99.40
5086;DHT22;4715;51.660;7.082;2023-02-15T16:27:56;13.60;99.60
5086;DHT22;4715;51.660;7.082;2023-02-15T16:30:25;13.50;99.80
5086;DHT22;4715;51.660;7.082;2023-02-15T16:32:47;13.40;99.90
5086;DHT22;4715;51.660;7.082;2023-02-15T16:35:14;13.40;99.90
5086;DHT22;4715;51.660;7.082;2023-02-15T16:37:36;13.30;99.90